aviador You're here:

KGAG Decoded Metar

GAGE in OK, USA
Report Time2017-08-22 22:12:00
UTC Time2017-08-22 22:23:13
Flight Rules vfr VFR
Wind060° at 14 kt
W.Decomp.*RWY 35: 6.6 kt HW 12.4 kt RCW
W.Rank060° ranks 23
Current wind is above 060° avg. (7.8)
Visibility9999 m
Phenomena:N/A
Clouds:Overcast 030 Hf
Expected CloudBase > 2,800 ft AGL from Temp-Dew spread
Ceiling3,000 ft
Temp28°C (ISA +17)
Dew Point21°C (66% RH)
Heat Index30.2°C
AAT27.2°C
QNH1019 hPa
Density Alt4,318 ft
Elevation2,192 ft
Report Wrong Elevation
Raw Report
KGAG 222212Z AUTO 06014KT 10SM OVC030 28/21 A3009 RMK AO2
T02830206=

Extra information for KGAG:More info

Metar Taf Metar & Taf Last 4 Metars F.Rules Stats Wind Profile Meteogram Temp Stats Airport Information Weather charts Add Link Nearby VenuesMetar ALERT Operation Metar Decoded Social comments

AIRNAV info for KGAG